createdAt,value
2019-04-30T00:01:07.505Z,18.83
2019-04-30T00:03:50.509Z,23.52
2019-04-30T00:06:27.350Z,21.05
2019-04-30T00:08:57.605Z,19.85
2019-04-30T00:11:31.052Z,21.92
2019-04-30T00:14:05.664Z,24.35
2019-04-30T00:16:40.038Z,22.00
2019-04-30T00:19:17.866Z,21.83
2019-04-30T00:21:50.034Z,24.83
2019-04-30T00:24:20.429Z,21.17
2019-04-30T00:26:55.123Z,22.77
2019-04-30T00:29:30.823Z,24.75
2019-04-30T00:32:04.426Z,23.08
2019-04-30T00:34:39.289Z,22.73
2019-04-30T00:37:13.986Z,24.02
2019-04-30T00:39:44.427Z,20.50
2019-04-30T00:42:23.959Z,22.85
2019-04-30T00:44:50.371Z,22.20
2019-04-30T00:47:25.688Z,23.60
2019-04-30T00:50:00.284Z,23.52
2019-04-30T00:52:33.994Z,26.40
2019-04-30T00:55:08.904Z,24.65
2019-04-30T00:57:43.560Z,26.25
2019-04-30T01:00:19.730Z,21.12
2019-04-30T01:02:53.370Z,27.10
2019-04-30T01:05:27.154Z,26.10
2019-04-30T01:08:00.731Z,23.38
2019-04-30T01:10:34.881Z,23.98
2019-04-30T01:13:11.993Z,24.37
2019-04-30T01:15:43.961Z,26.95
2019-04-30T01:18:16.291Z,23.95
2019-04-30T01:20:49.879Z,30.73
2019-04-30T01:23:23.594Z,28.83
2019-04-30T01:25:58.593Z,28.52
2019-04-30T01:28:31.883Z,25.92
2019-04-30T01:31:05.490Z,29.42
2019-04-30T01:33:39.280Z,23.48
2019-04-30T01:36:13.463Z,23.62
2019-04-30T01:38:49.051Z,24.35
2019-04-30T01:41:27.354Z,23.90
2019-04-30T01:43:55.425Z,29.45
2019-04-30T01:46:29.214Z,28.15
2019-04-30T01:49:02.723Z,27.70
2019-04-30T01:51:36.324Z,27.40
2019-04-30T01:54:13.819Z,28.70
2019-04-30T01:56:54.334Z,26.20
2019-04-30T01:59:29.149Z,27.02
2019-04-30T02:02:02.948Z,27.60
2019-04-30T02:04:36.586Z,26.70
2019-04-30T02:07:10.222Z,29.15
2019-04-30T02:09:43.744Z,25.30
2019-04-30T02:12:19.722Z,31.67
2019-04-30T02:14:51.842Z,27.33
2019-04-30T02:17:24.771Z,27.15
2019-04-30T02:19:59.318Z,27.10
2019-04-30T02:22:32.201Z,26.30
2019-04-30T02:25:05.985Z,28.77
2019-04-30T02:27:39.554Z,30.48
2019-04-30T02:30:13.272Z,32.28
2019-04-30T02:32:49.579Z,30.95
2019-04-30T02:35:23.474Z,32.55
2019-04-30T02:38:03.016Z,29.98
2019-04-30T02:40:36.642Z,25.73
2019-04-30T02:43:10.345Z,29.23
2019-04-30T02:45:44.024Z,29.52
2019-04-30T02:48:19.451Z,26.90
2019-04-30T02:50:52.233Z,24.52
2019-04-30T02:53:40.223Z,31.95
2019-04-30T02:56:13.045Z,29.77
2019-04-30T02:58:46.819Z,26.75
2019-04-30T03:01:20.652Z,28.45
2019-04-30T03:03:54.189Z,25.95
2019-04-30T03:06:30.370Z,26.83
2019-04-30T03:09:01.515Z,23.00
2019-04-30T03:11:35.054Z,25.67
2019-04-30T03:14:10.360Z,24.80
2019-04-30T03:16:46.212Z,20.98
2019-04-30T03:19:22.664Z,24.80
2019-04-30T03:21:59.997Z,22.37
2019-04-30T03:24:31.051Z,22.48
2019-04-30T03:27:04.839Z,21.05
2019-04-30T03:29:40.536Z,18.83
2019-04-30T03:32:13.858Z,19.75
2019-04-30T03:34:46.021Z,19.75
2019-04-30T03:37:20.496Z,21.00
2019-04-30T03:39:54.127Z,20.08
2019-04-30T03:42:29.549Z,26.30
2019-04-30T03:45:01.546Z,24.30
2019-04-30T03:47:35.327Z,24.83
2019-04-30T03:50:09.423Z,24.35
2019-04-30T03:52:42.983Z,25.55
2019-04-30T03:55:16.640Z,25.35
2019-04-30T03:57:51.896Z,23.50
2019-04-30T04:00:30.584Z,23.40
2019-04-30T04:03:04.317Z,22.27
2019-04-30T04:05:39.960Z,29.67
2019-04-30T04:08:16.369Z,25.25
2019-04-30T04:10:52.940Z,22.75
2019-04-30T04:13:25.138Z,23.85
2019-04-30T04:15:59.989Z,24.05
2019-04-30T04:18:32.923Z,23.00
2019-04-30T04:21:11.564Z,24.25
2019-04-30T04:23:40.164Z,29.02
2019-04-30T04:26:13.764Z,24.92
2019-04-30T04:28:49.645Z,26.83
2019-04-30T04:31:21.611Z,25.40
2019-04-30T04:33:55.309Z,26.27
2019-04-30T04:36:30.222Z,26.83
2019-04-30T04:39:02.536Z,26.35
2019-04-30T04:41:36.207Z,26.77
2019-04-30T04:44:12.923Z,31.87
2019-04-30T04:46:43.987Z,26.40
2019-04-30T04:49:20.023Z,26.33
2019-04-30T04:51:52.164Z,29.25
2019-04-30T04:54:26.716Z,26.83
2019-04-30T04:57:14.008Z,28.77
2019-04-30T04:59:34.149Z,33.90
2019-04-30T05:02:13.355Z,30.67
2019-04-30T05:04:49.111Z,30.50
2019-04-30T05:07:21.426Z,28.67
2019-04-30T05:09:55.093Z,32.33
2019-04-30T05:12:29.738Z,31.30
2019-04-30T05:15:02.482Z,30.75
2019-04-30T05:17:36.895Z,29.37
2019-04-30T05:20:10.651Z,29.67
2019-04-30T05:22:44.368Z,25.75
2019-04-30T05:25:18.785Z,29.83
2019-04-30T05:27:52.769Z,28.25
2019-04-30T05:30:26.382Z,33.72
2019-04-30T05:32:59.924Z,27.10
2019-04-30T05:35:33.587Z,31.40
2019-04-30T05:38:09.173Z,24.50
2019-04-30T05:40:42.549Z,29.10
2019-04-30T05:43:14.407Z,31.00
2019-04-30T05:45:53.723Z,29.37
2019-04-30T05:51:39.452Z,24.42
2019-04-30T05:54:26.400Z,28.00
2019-04-30T05:57:09.672Z,29.90
2019-04-30T05:59:56.245Z,25.45
2019-04-30T06:02:44.902Z,30.37
2019-04-30T06:05:32.485Z,26.52
2019-04-30T06:08:29.176Z,27.25
2019-04-30T06:11:15.660Z,32.38
2019-04-30T06:14:06.360Z,30.12
2019-04-30T06:16:46.534Z,30.50
2019-04-30T06:25:45.868Z,31.55
2019-04-30T06:28:29.236Z,27.65
2019-04-30T06:31:11.385Z,31.15
2019-04-30T06:33:55.263Z,28.10
2019-04-30T06:36:36.101Z,26.58
2019-04-30T06:39:18.775Z,28.67
2019-04-30T06:42:06.486Z,34.38
2019-04-30T06:47:38.783Z,29.45
2019-04-30T06:50:21.036Z,27.98
2019-04-30T06:53:01.348Z,27.90
2019-04-30T06:55:43.437Z,34.42
2019-04-30T06:58:28.983Z,27.15
2019-04-30T07:01:09.517Z,27.05
2019-04-30T07:06:37.067Z,28.90
2019-04-30T07:09:43.643Z,27.90
2019-04-30T07:12:27.083Z,26.87
2019-04-30T07:15:08.842Z,30.67
2019-04-30T07:17:49.184Z,24.60
2019-04-30T07:20:29.164Z,25.73
2019-04-30T07:23:10.104Z,28.98
2019-04-30T07:25:55.574Z,29.48
2019-04-30T07:28:44.619Z,24.75
2019-04-30T07:31:14.698Z,27.30
2019-04-30T07:33:50.735Z,33.33
2019-04-30T07:36:19.722Z,29.85
2019-04-30T07:38:56.459Z,25.92
2019-04-30T07:41:30.796Z,31.42
2019-04-30T07:44:01.102Z,28.45
2019-04-30T07:46:35.189Z,28.77
2019-04-30T07:49:10.076Z,31.05
2019-04-30T07:51:42.535Z,27.02
2019-04-30T07:54:15.597Z,28.35
2019-04-30T07:56:50.657Z,26.02
2019-04-30T07:59:23.636Z,26.95
2019-04-30T08:02:07.630Z,30.65
2019-04-30T08:18:02.784Z,27.73
2019-04-30T08:20:26.735Z,26.35
2019-04-30T08:23:13.357Z,27.75
2019-04-30T08:25:34.021Z,26.23
2019-04-30T08:28:09.148Z,31.75
2019-04-30T08:30:43.042Z,27.48
2019-04-30T08:33:16.835Z,25.65
2019-04-30T08:35:50.356Z,23.90
2019-04-30T08:38:24.049Z,31.30
2019-04-30T08:40:58.840Z,25.55
2019-04-30T08:43:31.491Z,27.55
2019-04-30T08:46:05.080Z,29.02
2019-04-30T08:48:49.921Z,29.50
2019-04-30T08:51:13.877Z,29.27
2019-04-30T08:53:46.234Z,25.67
2019-04-30T08:56:21.981Z,29.25
2019-04-30T08:58:54.939Z,30.98
2019-04-30T09:01:29.402Z,26.10
2019-04-30T09:04:01.915Z,28.00
2019-04-30T09:06:35.630Z,26.20
2019-04-30T09:09:10.957Z,29.33
2019-04-30T09:11:51.637Z,26.77
2019-04-30T09:14:18.539Z,24.90
2019-04-30T09:16:51.344Z,25.60
2019-04-30T09:19:23.907Z,22.95
2019-04-30T09:21:59.053Z,27.62
2019-04-30T09:24:31.206Z,26.50
2019-04-30T09:27:04.661Z,26.85
2019-04-30T09:29:39.147Z,28.80
2019-04-30T09:32:12.024Z,25.62
2019-04-30T09:34:45.685Z,29.75
2019-04-30T09:37:19.264Z,29.27
2019-04-30T09:39:52.894Z,29.70
2019-04-30T09:42:26.505Z,29.87
2019-04-30T09:45:00.189Z,25.83
2019-04-30T09:47:33.715Z,29.65
2019-04-30T09:50:09.019Z,31.37
2019-04-30T09:52:41.180Z,26.23
2019-04-30T09:55:14.728Z,27.05
2019-04-30T09:57:48.888Z,27.33
2019-04-30T10:00:22.929Z,36.10
2019-04-30T10:02:57.298Z,28.77
2019-04-30T10:05:31.512Z,25.20
2019-04-30T10:08:03.874Z,27.67
2019-04-30T10:10:38.774Z,29.50
2019-04-30T10:13:12.561Z,25.37
2019-04-30T10:15:50.823Z,31.80
2019-04-30T10:18:24.516Z,28.02
2019-04-30T10:20:58.913Z,34.47
2019-04-30T10:23:31.769Z,28.45
2019-04-30T10:26:05.531Z,30.98
2019-04-30T10:28:39.108Z,30.48
2019-04-30T10:31:12.740Z,29.12
2019-04-30T10:33:48.438Z,27.08
2019-04-30T10:36:20.176Z,24.45
2019-04-30T10:38:54.637Z,31.30
2019-04-30T10:41:28.948Z,26.00
2019-04-30T10:44:02.089Z,26.77
2019-04-30T10:46:35.735Z,28.98
2019-04-30T10:49:09.281Z,26.20
2019-04-30T10:51:43.125Z,26.00
2019-04-30T10:54:24.098Z,26.65
2019-04-30T10:56:51.351Z,28.38
2019-04-30T10:59:24.284Z,25.33
2019-04-30T11:01:59.212Z,27.20
2019-04-30T11:04:31.467Z,25.70
2019-04-30T11:07:05.055Z,23.70
2019-04-30T11:09:39.489Z,22.70
2019-04-30T11:12:12.844Z,24.45
2019-04-30T11:14:46.472Z,25.58
2019-04-30T11:17:21.013Z,30.73
2019-04-30T11:19:55.412Z,24.60
2019-04-30T11:22:28.941Z,23.27
2019-04-30T11:25:03.391Z,23.62
2019-04-30T11:27:37.311Z,21.73
2019-04-30T11:30:20.390Z,22.90
2019-04-30T11:32:45.430Z,24.95
2019-04-30T11:35:20.721Z,25.30
2019-04-30T11:37:52.818Z,22.20
2019-04-30T11:40:34.531Z,21.42
2019-04-30T11:43:01.367Z,22.23
2019-04-30T11:59:19.960Z,21.48
2019-04-30T12:01:53.774Z,23.48
2019-04-30T12:04:29.855Z,20.83
2019-04-30T12:07:16.822Z,18.67
2019-04-30T12:10:01.217Z,21.40
2019-04-30T12:12:34.849Z,21.00
2019-04-30T12:15:09.318Z,21.95
2019-04-30T12:17:42.759Z,20.35
2019-04-30T12:20:16.477Z,19.15
2019-04-30T12:22:50.119Z,16.80
2019-04-30T12:25:23.808Z,15.98
2019-04-30T12:27:59.493Z,19.90
2019-04-30T12:30:31.039Z,17.87
2019-04-30T12:33:05.527Z,19.05
2019-04-30T12:35:39.116Z,21.00
2019-04-30T12:38:12.650Z,18.52
2019-04-30T12:40:46.385Z,19.17
2019-04-30T12:43:19.958Z,19.02
2019-04-30T12:46:02.649Z,19.92
2019-04-30T12:48:44.380Z,16.73
2019-04-30T12:51:23.722Z,18.15
2019-04-30T12:54:01.109Z,14.90
2019-04-30T12:56:40.518Z,17.87
2019-04-30T12:59:14.243Z,19.05
2019-04-30T13:01:49.563Z,14.90
2019-04-30T13:04:21.603Z,16.30
2019-04-30T13:06:55.925Z,16.60
2019-04-30T13:09:30.310Z,16.10
2019-04-30T13:12:03.524Z,14.25
2019-04-30T13:14:50.313Z,17.42
2019-04-30T13:17:10.283Z,16.60
2019-04-30T13:19:44.883Z,15.15
2019-04-30T13:43:40.180Z,12.48
2019-04-30T13:46:12.288Z,15.95
2019-04-30T13:48:45.968Z,16.10
2019-04-30T13:51:19.715Z,13.02
2019-04-30T13:53:53.355Z,15.85
2019-04-30T13:56:28.733Z,15.07
2019-04-30T13:59:00.582Z,14.80
2019-04-30T14:01:34.318Z,14.60
2019-04-30T14:04:23.887Z,13.85
2019-04-30T14:07:04.078Z,13.50
2019-04-30T14:09:38.491Z,12.02
2019-04-30T14:12:12.198Z,15.80
2019-04-30T14:14:46.010Z,15.63
2019-04-30T14:17:19.607Z,11.18
2019-04-30T14:19:53.241Z,12.52
2019-04-30T14:22:26.966Z,13.65
2019-04-30T14:25:00.831Z,17.17
2019-04-30T14:27:34.493Z,17.15
2019-04-30T14:30:09.336Z,10.77
2019-04-30T14:32:43.448Z,18.55
2019-04-30T14:35:18.691Z,14.32
2019-04-30T14:37:51.773Z,13.48
2019-04-30T14:40:25.998Z,13.75
2019-04-30T14:43:10.033Z,11.45
2019-04-30T14:45:52.955Z,11.55
2019-04-30T14:48:32.085Z,13.85
2019-04-30T14:51:05.406Z,13.05
2019-04-30T14:53:41.659Z,13.68
2019-04-30T14:56:16.988Z,13.65
2019-04-30T14:58:56.375Z,12.95
2019-04-30T15:01:35.696Z,12.35
2019-04-30T15:04:09.524Z,11.85
2019-04-30T15:06:43.985Z,11.55
2019-04-30T15:09:17.626Z,12.23
2019-04-30T15:11:51.367Z,12.90
2019-04-30T15:14:25.928Z,19.23
2019-04-30T15:16:59.569Z,12.52
2019-04-30T15:19:33.730Z,12.90
2019-04-30T15:22:09.127Z,12.37
2019-04-30T15:24:41.247Z,11.93
2019-04-30T15:27:14.837Z,15.88
2019-04-30T15:29:56.611Z,13.25
2019-04-30T15:32:22.370Z,11.70
2019-04-30T15:34:56.023Z,13.98
2019-04-30T15:37:29.724Z,15.70
2019-04-30T15:40:03.472Z,15.52
2019-04-30T15:42:38.090Z,14.50
2019-04-30T15:45:11.875Z,19.33
2019-04-30T15:47:46.445Z,14.68
2019-04-30T15:50:20.248Z,15.82
2019-04-30T15:52:53.839Z,15.50
2019-04-30T15:55:27.441Z,12.73
2019-04-30T16:00:56.016Z,12.77
2019-04-30T16:03:32.309Z,12.90
2019-04-30T16:06:05.891Z,13.77
2019-04-30T16:08:39.473Z,13.95
2019-04-30T16:11:13.935Z,19.50
2019-04-30T16:13:53.226Z,13.75
2019-04-30T16:16:27.767Z,21.20
2019-04-30T16:19:01.523Z,12.73
2019-04-30T16:21:35.122Z,15.30
2019-04-30T16:24:09.654Z,12.43
2019-04-30T16:26:49.548Z,15.73
2019-04-30T16:29:17.207Z,14.10
2019-04-30T16:31:50.759Z,11.35
2019-04-30T16:34:24.387Z,12.88
2019-04-30T16:36:58.999Z,14.70
2019-04-30T16:39:32.024Z,14.52
2019-04-30T16:42:05.872Z,14.05
2019-04-30T16:44:39.720Z,13.73
2019-04-30T16:47:16.645Z,11.40
2019-04-30T16:49:49.288Z,15.00
2019-04-30T16:52:21.464Z,11.18
2019-04-30T16:54:55.838Z,12.65
2019-04-30T16:57:30.355Z,14.30
2019-04-30T17:00:03.132Z,14.35
2019-04-30T17:02:36.919Z,13.18
2019-04-30T17:05:11.251Z,11.50
2019-04-30T17:07:50.619Z,15.55
2019-04-30T17:10:29.285Z,15.20
2019-04-30T17:13:09.183Z,13.77
2019-04-30T17:15:41.471Z,17.98
2019-04-30T17:18:15.024Z,15.40
2019-04-30T17:20:49.628Z,12.00
2019-04-30T17:23:24.803Z,12.68
2019-04-30T17:25:58.366Z,14.90
2019-04-30T17:28:32.229Z,20.35
2019-04-30T17:31:05.796Z,45.42
2019-04-30T17:33:40.283Z,22.60
2019-04-30T17:36:14.713Z,21.95
2019-04-30T17:38:48.455Z,27.80
2019-04-30T17:41:23.146Z,20.25
2019-04-30T17:43:58.862Z,36.65
2019-04-30T17:46:31.689Z,31.73
2019-04-30T17:49:06.694Z,15.95
2019-04-30T17:51:40.441Z,20.30
2019-04-30T17:54:14.075Z,15.43
2019-04-30T17:56:48.580Z,15.10
2019-04-30T17:59:24.535Z,14.35
2019-04-30T18:01:59.616Z,16.85
2019-04-30T18:04:33.161Z,14.32
2019-04-30T18:07:06.735Z,11.85
2019-04-30T18:09:40.640Z,12.18
2019-04-30T18:12:14.333Z,11.35
2019-04-30T18:14:49.738Z,14.40
2019-04-30T18:17:25.268Z,11.90
2019-04-30T18:19:59.895Z,12.98
2019-04-30T18:22:34.314Z,12.57
2019-04-30T18:25:12.822Z,12.43
2019-04-30T18:27:49.459Z,11.88
2019-04-30T18:30:25.567Z,15.43
2019-04-30T18:32:59.975Z,11.75
2019-04-30T18:35:33.809Z,9.90
2019-04-30T18:38:07.335Z,11.85
2019-04-30T18:40:41.566Z,10.40
2019-04-30T18:43:15.230Z,14.23
2019-04-30T18:45:49.499Z,11.55
2019-04-30T18:48:23.506Z,9.40
2019-04-30T18:50:58.438Z,11.93
2019-04-30T18:53:32.199Z,10.85
2019-04-30T18:56:09.948Z,11.00
2019-04-30T18:58:42.922Z,10.88
2019-04-30T19:01:14.236Z,11.10
2019-04-30T19:03:49.225Z,10.10
2019-04-30T19:06:25.919Z,11.10
2019-04-30T19:09:02.192Z,13.70
2019-04-30T19:11:36.711Z,14.68
2019-04-30T19:14:26.223Z,11.55
2019-04-30T19:17:05.503Z,13.68
2019-04-30T19:19:41.701Z,16.33
2019-04-30T19:22:16.173Z,12.73
2019-04-30T19:24:56.071Z,11.38
2019-04-30T19:27:23.513Z,12.85
2019-04-30T19:29:59.388Z,14.35
2019-04-30T19:32:31.503Z,17.45
2019-04-30T19:35:05.207Z,13.10
2019-04-30T19:37:40.338Z,16.80
2019-04-30T19:40:12.387Z,14.35
2019-04-30T19:42:48.331Z,14.27
2019-04-30T19:45:19.802Z,17.58
2019-04-30T19:47:54.285Z,14.48
2019-04-30T19:50:28.285Z,15.80
2019-04-30T19:53:02.358Z,15.60
2019-04-30T19:55:36.360Z,14.35
2019-04-30T19:58:14.498Z,16.20
2019-04-30T20:00:45.110Z,15.45
2019-04-30T20:03:19.771Z,17.95
2019-04-30T20:05:52.965Z,17.35
2019-04-30T20:08:28.593Z,18.17
2019-04-30T20:11:00.233Z,17.25
2019-04-30T20:13:37.196Z,15.23
2019-04-30T20:16:09.689Z,20.17
2019-04-30T20:18:42.780Z,17.87
2019-04-30T20:21:26.198Z,19.25
2019-04-30T20:23:52.629Z,21.60
2019-04-30T20:26:26.414Z,18.67
2019-04-30T20:29:00.028Z,20.33
2019-04-30T20:31:33.616Z,20.55
2019-04-30T20:34:09.220Z,16.52
2019-04-30T20:36:40.881Z,16.83
2019-04-30T20:39:18.241Z,19.65
2019-04-30T20:41:51.841Z,18.92
2019-04-30T20:44:25.643Z,23.15
2019-04-30T20:46:59.350Z,19.58
2019-04-30T20:49:33.040Z,16.50
2019-04-30T20:52:06.768Z,21.80
2019-04-30T20:54:40.449Z,19.70
2019-04-30T20:57:14.132Z,18.20
2019-04-30T20:59:48.759Z,21.62
2019-04-30T21:02:21.411Z,21.98
2019-04-30T21:04:55.192Z,18.85
2019-04-30T21:07:28.828Z,21.33
2019-04-30T21:10:02.465Z,20.98
2019-04-30T21:12:36.988Z,18.10
2019-04-30T21:15:10.681Z,19.45
2019-04-30T21:17:44.992Z,24.48
2019-04-30T21:20:19.411Z,23.48
2019-04-30T21:22:53.019Z,16.12
2019-04-30T21:25:28.961Z,20.10
2019-04-30T21:28:00.316Z,23.70
2019-04-30T21:30:33.921Z,24.12
2019-04-30T21:33:10.879Z,20.60
2019-04-30T21:35:44.557Z,25.12
2019-04-30T21:38:19.379Z,22.15
2019-04-30T21:40:51.858Z,20.05
2019-04-30T21:43:25.416Z,21.95
2019-04-30T21:46:00.082Z,18.25
2019-04-30T21:48:33.754Z,20.20
2019-04-30T21:51:09.398Z,20.05
2019-04-30T21:53:42.066Z,20.02
2019-04-30T21:56:16.493Z,19.87
2019-04-30T21:58:50.093Z,18.50
2019-04-30T22:01:23.845Z,24.17
2019-04-30T22:03:57.596Z,19.80
2019-04-30T22:06:31.295Z,20.45
2019-04-30T22:09:05.732Z,18.90
2019-04-30T22:11:39.588Z,21.10
2019-04-30T22:14:12.890Z,16.85
2019-04-30T22:16:46.524Z,19.20
2019-04-30T22:19:20.069Z,22.62
2019-04-30T22:21:54.567Z,26.77
2019-04-30T22:24:28.304Z,21.60
2019-04-30T22:27:02.483Z,21.98
2019-04-30T22:29:39.309Z,18.42
2019-04-30T22:32:10.245Z,23.20
2019-04-30T22:34:43.959Z,17.33
2019-04-30T22:37:19.113Z,19.33
2019-04-30T22:40:01.453Z,19.35
2019-04-30T22:42:35.852Z,20.00
2019-04-30T22:45:09.602Z,17.75
2019-04-30T22:47:43.254Z,15.73
2019-04-30T22:50:17.783Z,18.98
2019-04-30T22:52:51.464Z,17.00
2019-04-30T22:55:25.255Z,15.73
2019-04-30T22:57:59.072Z,21.67
2019-04-30T23:00:34.393Z,21.25
2019-04-30T23:03:09.583Z,17.95
2019-04-30T23:05:43.319Z,21.00
2019-04-30T23:08:17.011Z,31.45
2019-04-30T23:10:50.594Z,16.73
2019-04-30T23:13:24.197Z,26.42
2019-04-30T23:15:57.903Z,19.27
2019-04-30T23:18:32.250Z,20.67
2019-04-30T23:21:05.440Z,18.62
2019-04-30T23:23:39.152Z,21.37
2019-04-30T23:26:13.005Z,22.95
2019-04-30T23:28:46.774Z,20.15
2019-04-30T23:31:21.234Z,19.73
2019-04-30T23:33:55.012Z,19.75
2019-04-30T23:36:29.469Z,21.27
2019-04-30T23:39:03.030Z,20.23
2019-04-30T23:41:36.695Z,20.77
2019-04-30T23:44:10.477Z,19.42
2019-04-30T23:46:44.792Z,20.37
2019-04-30T23:49:19.149Z,24.58
2019-04-30T23:51:52.795Z,24.35
2019-04-30T23:54:26.622Z,19.90
2019-04-30T23:57:00.256Z,22.30
2019-04-30T23:59:34.017Z,22.15
